Terminal Aerodrome Forecast
Issued by NWS Knoxville/Tri Cities, TN

Home | Current Version | Previous Version | Text Only | Print | Product List | Glossary On
Versions: 1 2 3 4 5 6 7 8 9 10 11 12 13 14 15 16 17 18 19 20 21 22 23 24 25 26 27 28 29 30 31 32 33 34 35 36 37 38 39 40 41 42 43 44 45 46
000
FTUS44 KMRX 011435 AAB
TAFTRI
TAF AMD
KTRI 011435Z 0115/0212 VRB04KT P6SM BKN030
      TEMPO 0115/0117 VRB04KT P6SM BKN015
     FM011700 22010KT P6SM BKN035
     FM012100 23012KT P6SM VCTS SCT050CB BKN250
     FM020300 VRB03KT P6SM VCTS SCT050CB BKN250
     FM020900 VRB03KT 5SM BR BKN040 BKN200=

USA.gov is the U.S. government's official web portal to all federal, state and local government web resources and services.